Time;durP1;ratioP1;P1;durP2;ratioP2;P2;SDS_P1;SDS_P2;PMS_P1;PMS_P2;Temp;Humidity;BMP_temperature;BMP_pressure;BME280_temperature;BME280_humidity;BME280_pressure;Samples;Min_cycle;Max_cycle;Signal;HPM_P1;HPM_P2
2021/06/03 00:00:32;;;;;;;36.80;17.70;;;;;;;13.56;57.38;101304.59;125347;1096;103074;-87
2021/06/03 00:02:59;;;;;;;29.95;15.40;;;;;;;13.62;57.43;101299.06;125411;1096;103000;-87
2021/06/03 00:05:31;;;;;;;31.93;17.78;;;;;;;13.60;57.80;101300.92;125678;1101;103264;-86
2021/06/03 00:08:00;;;;;;;31.90;16.90;;;;;;;13.58;57.49;101316.13;125821;1096;103151;-86
2021/06/03 00:10:33;;;;;;;26.65;16.25;;;;;;;13.60;57.61;101309.81;125065;1102;103183;-88
2021/06/03 00:13:02;;;;;;;25.20;15.57;;;;;;;13.57;56.95;101311.68;125503;1101;103803;-86
2021/06/03 00:15:30;;;;;;;24.43;13.73;;;;;;;13.47;57.35;101306.55;125645;1101;102972;-86
2021/06/03 00:17:59;;;;;;;24.10;14.18;;;;;;;13.47;57.27;101308.35;125578;1101;103096;-86
2021/06/03 00:20:29;;;;;;;23.55;14.03;;;;;;;13.48;57.63;101310.98;125600;1101;103607;-89
2021/06/03 00:23:10;;;;;;;31.70;17.00;;;;;;;13.50;57.50;101310.95;125576;1096;103651;-87
2021/06/03 00:25:39;;;;;;;28.10;14.93;;;;;;;13.48;57.40;101310.13;125334;1102;103002;-87
2021/06/03 00:28:08;;;;;;;26.67;14.63;;;;;;;13.44;57.16;101311.98;125641;1096;103266;-86
2021/06/03 00:30:49;;;;;;;22.13;13.20;;;;;;;13.45;57.13;101305.72;125352;1096;103149;-87
2021/06/03 00:33:17;;;;;;;21.70;14.13;;;;;;;13.42;57.08;101302.23;125538;1101;103094;-85
2021/06/03 00:35:44;;;;;;;22.15;13.70;;;;;;;13.39;57.30;101311.20;125497;1101;103077;-87
2021/06/03 00:38:13;;;;;;;21.43;12.03;;;;;;;13.26;57.63;101289.20;125382;1101;103050;-87
2021/06/03 00:40:42;;;;;;;23.53;12.50;;;;;;;13.33;57.61;101305.98;125515;1101;103387;-86
2021/06/03 00:43:23;;;;;;;16.18;11.45;;;;;;;13.36;57.11;101308.61;125993;1101;103541;-87
2021/06/03 00:45:51;;;;;;;17.77;9.80;;;;;;;13.36;56.02;101303.27;125569;1101;102978;-87
2021/06/03 00:48:33;;;;;;;16.73;11.93;;;;;;;13.32;56.45;101304.22;125211;1104;103285;-86
2021/06/03 00:51:02;;;;;;;15.83;10.23;;;;;;;13.31;56.20;101305.98;125307;1104;103120;-87
2021/06/03 00:53:31;;;;;;;18.23;10.55;;;;;;;13.30;56.11;101312.28;125099;1099;103154;-87
2021/06/03 00:55:59;;;;;;;14.68;9.08;;;;;;;13.29;55.64;101312.29;125121;1104;103058;-86
2021/06/03 00:58:27;;;;;;;14.98;9.48;;;;;;;13.29;55.49;101306.94;125431;1104;103285;-87
2021/06/03 01:00:56;;;;;;;16.63;9.75;;;;;;;13.25;55.22;101311.50;125042;1104;103645;-86
2021/06/03 01:03:37;;;;;;;15.10;8.53;;;;;;;13.24;54.84;101307.06;125079;1100;103352;-86
2021/06/03 01:06:08;;;;;;;18.70;9.13;;;;;;;13.20;55.08;101300.02;125192;1104;103744;-85
2021/06/03 01:08:47;;;;;;;10.67;8.53;;;;;;;13.16;55.24;101296.53;125383;1100;103206;-86
2021/06/03 01:11:37;;;;;;;11.80;7.55;;;;;;;13.13;56.12;101296.61;125558;1099;103152;-86
2021/06/03 01:14:11;;;;;;;9.77;7.03;;;;;;;13.17;56.30;101300.97;124733;1104;103340;-87
2021/06/03 01:16:39;;;;;;;11.07;7.60;;;;;;;13.20;56.38;101300.89;124984;1104;103309;-86
2021/06/03 01:19:16;;;;;;;12.10;7.68;;;;;;;13.25;56.29;101306.16;125171;1104;103182;-85
2021/06/03 01:21:49;;;;;;;10.20;7.30;;;;;;;13.19;56.22;101303.61;124491;1104;103285;-85
2021/06/03 01:24:34;;;;;;;11.27;7.47;;;;;;;13.14;56.37;101303.73;124313;1104;103748;-84
2021/06/03 01:27:07;;;;;;;8.07;6.77;;;;;;;13.14;56.38;101309.08;125212;1101;103208;-85
2021/06/03 01:29:58;;;;;;;8.80;7.37;;;;;;;13.15;56.89;101299.25;125487;1101;103859;-86
2021/06/03 01:32:27;;;;;;;12.00;7.97;;;;;;;13.16;56.34;101309.91;125154;1096;103237;-84
2021/06/03 01:34:55;;;;;;;8.25;7.10;;;;;;;13.13;56.03;101309.98;125133;1101;103055;-85
2021/06/03 01:37:23;;;;;;;9.23;6.90;;;;;;;13.10;56.50;101310.06;125000;1101;103083;-85
2021/06/03 01:39:51;;;;;;;9.57;7.27;;;;;;;13.15;56.36;101305.46;124933;1097;103059;-85
2021/06/03 01:42:18;;;;;;;8.70;6.88;;;;;;;13.21;55.57;101308.01;125133;1104;103083;-86
2021/06/03 01:45:00;;;;;;;8.90;7.45;;;;;;;13.24;55.29;101308.87;125052;1096;103167;-85
2021/06/03 01:47:28;;;;;;;8.83;7.17;;;;;;;13.28;53.77;101316.77;124625;1103;103118;-86
2021/06/03 01:49:56;;;;;;;17.30;8.83;;;;;;;13.32;53.62;101315.78;125488;1096;102972;-86
2021/06/03 01:52:24;;;;;;;11.20;8.08;;;;;;;13.35;53.57;101317.52;125546;1101;103128;-85
2021/06/03 01:54:52;;;;;;;10.40;8.23;;;;;;;13.38;54.06;101312.11;124991;1102;103058;-85
2021/06/03 01:57:20;;;;;;;8.80;7.25;;;;;;;13.37;54.50;101315.73;125018;1101;103939;-84
2021/06/03 01:59:48;;;;;;;10.00;7.30;;;;;;;13.32;54.13;101309.56;125035;1101;103080;-86
2021/06/03 02:02:16;;;;;;;11.73;8.43;;;;;;;13.28;54.55;101323.93;124952;1102;103168;-87
2021/06/03 02:04:43;;;;;;;10.10;8.10;;;;;;;13.27;54.76;101317.68;125033;1101;103152;-85
2021/06/03 02:07:11;;;;;;;14.43;8.33;;;;;;;13.28;55.22;101315.91;125144;1103;103155;-86
2021/06/03 02:09:39;;;;;;;10.25;7.40;;;;;;;13.17;56.28;101325.05;125436;1096;103176;-86
2021/06/03 02:12:11;;;;;;;8.80;7.90;;;;;;;13.05;56.30;101326.19;125441;1101;103165;-86
2021/06/03 02:14:40;;;;;;;10.30;7.68;;;;;;;13.11;55.52;101327.84;125747;1101;103137;-84
2021/06/03 02:17:28;;;;;;;12.87;8.73;;;;;;;13.20;55.50;101326.77;125418;1101;103134;-85
2021/06/03 02:20:13;;;;;;;10.97;7.30;;;;;;;13.34;55.21;101321.09;125308;1104;103127;-86
2021/06/03 02:22:43;;;;;;;11.08;8.85;;;;;;;13.43;54.98;101315.56;125351;1104;103144;-85
2021/06/03 02:25:11;;;;;;;13.38;8.15;;;;;;;13.38;55.43;101321.04;125476;1104;103254;-86
2021/06/03 02:27:39;;;;;;;11.63;8.07;;;;;;;13.41;55.31;101319.19;125189;1104;103096;-86
2021/06/03 02:30:10;;;;;;;10.90;9.03;;;;;;;13.46;55.75;101325.31;125223;1099;103869;-85
2021/06/03 02:32:39;;;;;;;11.85;8.53;;;;;;;13.48;55.17;101321.69;125149;1101;103292;-84
2021/06/03 02:35:11;;;;;;;12.00;8.45;;;;;;;13.43;56.18;101315.56;125571;1096;103090;-86
2021/06/03 02:37:40;;;;;;;10.40;8.07;;;;;;;13.29;55.88;101322.99;125567;1096;103166;-85
2021/06/03 02:40:14;;;;;;;10.45;7.75;;;;;;;13.29;56.39;101318.54;125288;1102;103516;-85
2021/06/03 02:42:44;;;;;;;14.50;8.48;;;;;;;13.38;55.54;101309.44;125548;1101;103309;-85
2021/06/03 02:45:14;;;;;;;11.60;9.20;;;;;;;13.43;56.28;101315.56;125326;1097;103058;-85
2021/06/03 02:47:42;;;;;;;9.60;7.70;;;;;;;13.41;56.27;101314.73;125907;1101;103802;-85
2021/06/03 02:50:12;;;;;;;14.03;8.75;;;;;;;13.41;55.86;101324.55;125314;1104;103050;-86
2021/06/03 02:52:41;;;;;;;13.68;9.25;;;;;;;13.38;55.88;101320.14;125538;1101;103078;-85
2021/06/03 02:55:14;;;;;;;14.25;9.48;;;;;;;13.44;56.08;101317.33;125560;1101;103124;-86
2021/06/03 02:57:43;;;;;;;10.07;7.90;;;;;;;13.55;55.50;101327.78;127823;1101;101105;-86
2021/06/03 03:00:29;;;;;;;12.33;10.50;;;;;;;13.60;54.51;101322.33;127323;1096;103110;-85
2021/06/03 03:02:58;;;;;;;13.33;10.70;;;;;;;13.67;54.59;101323.93;125944;1101;103259;-84
2021/06/03 03:05:26;;;;;;;16.63;11.33;;;;;;;13.71;54.40;101334.55;125350;1104;103685;-86
2021/06/03 03:07:54;;;;;;;13.97;9.53;;;;;;;13.69;55.86;101325.66;125869;1096;103058;-83
2021/06/03 03:10:39;;;;;;;11.53;9.13;;;;;;;13.63;56.07;101336.50;125646;1101;103546;-84
2021/06/03 03:13:07;;;;;;;10.18;8.68;;;;;;;13.75;55.69;101329.97;127554;1101;101439;-84
2021/06/03 03:15:36;;;;;;;12.58;9.90;;;;;;;13.83;54.89;101330.66;127870;1101;101824;-85
2021/06/03 03:18:04;;;;;;;11.93;9.70;;;;;;;13.85;55.72;101331.51;127822;1101;101155;-85
2021/06/03 03:20:32;;;;;;;12.15;9.45;;;;;;;13.85;55.35;101330.64;127900;1101;101283;-84
2021/06/03 03:23:15;;;;;;;13.70;8.90;;;;;;;13.89;55.37;101343.03;127148;1101;101939;-85
2021/06/03 03:25:42;;;;;;;21.65;10.23;;;;;;;14.00;55.24;101342.77;125229;1101;103659;-85
2021/06/03 03:28:10;;;;;;;12.43;9.87;;;;;;;14.09;54.82;101337.17;125391;1101;103055;-85
2021/06/03 03:30:42;;;;;;;13.90;10.80;;;;;;;14.12;54.40;101345.12;125476;1096;104579;-86
2021/06/03 03:33:14;;;;;;;12.87;10.73;;;;;;;14.12;54.15;101338.89;125280;1101;103783;-85
2021/06/03 03:35:55;;;;;;;15.50;10.78;;;;;;;14.11;55.25;101343.34;127817;1101;102800;-85
2021/06/03 03:38:23;;;;;;;17.70;9.47;;;;;;;14.08;56.01;101338.08;127550;1101;101168;-85
2021/06/03 03:40:52;;;;;;;14.35;10.40;;;;;;;14.10;55.64;101341.61;127874;1101;101118;-86
2021/06/03 03:43:20;;;;;;;15.73;10.13;;;;;;;14.22;54.93;101337.70;127820;1101;101247;-85
2021/06/03 03:45:47;;;;;;;14.78;10.35;;;;;;;14.30;54.10;101342.87;125406;1101;103124;-85
2021/06/03 03:48:16;;;;;;;15.93;10.23;;;;;;;14.36;53.78;101343.58;125128;1101;103202;-85
2021/06/03 03:50:43;;;;;;;16.15;10.28;;;;;;;14.40;53.71;101338.16;124569;1102;103049;-86
2021/06/03 03:53:11;;;;;;;10.50;9.23;;;;;;;14.48;53.68;101336.14;124900;1097;103139;-85
2021/06/03 03:55:39;;;;;;;11.33;9.70;;;;;;;14.54;53.86;101344.00;124842;1096;103059;-86
2021/06/03 03:58:06;;;;;;;11.15;9.25;;;;;;;14.54;54.05;101352.03;124728;1097;103339;-85
2021/06/03 04:00:35;;;;;;;14.90;9.40;;;;;;;14.54;53.73;101346.67;124789;1104;103054;-86
2021/06/03 04:03:16;;;;;;;12.83;10.60;;;;;;;14.53;53.50;101348.48;124952;1096;103122;-86
2021/06/03 04:05:44;;;;;;;12.80;10.65;;;;;;;14.54;53.82;101350.25;124955;1101;103629;-86
2021/06/03 04:08:12;;;;;;;12.05;10.65;;;;;;;14.55;53.79;101353.80;125008;1101;103176;-85
2021/06/03 04:10:54;;;;;;;15.65;11.13;;;;;;;14.55;53.89;101349.34;124672;1099;103231;-85
2021/06/03 04:13:21;;;;;;;12.90;10.37;;;;;;;14.61;53.60;101352.74;124520;1104;103166;-88
2021/06/03 04:15:49;;;;;;;15.80;10.80;;;;;;;14.64;53.74;101353.58;124915;1099;103509;-86
2021/06/03 04:18:30;;;;;;;14.47;11.77;;;;;;;14.65;53.58;101354.48;125079;1098;103163;-88
2021/06/03 04:20:58;;;;;;;13.87;11.50;;;;;;;14.67;53.72;101355.30;125241;1104;102149;-86
2021/06/03 04:23:26;;;;;;;15.45;11.63;;;;;;;14.69;53.88;101351.66;125283;1104;103043;-85
2021/06/03 04:26:07;;;;;;;15.55;9.90;;;;;;;14.73;53.79;101355.14;125251;1105;102962;-85
2021/06/03 04:28:35;;;;;;;15.40;11.53;;;;;;;14.77;53.52;101350.55;125196;1104;103168;-86
2021/06/03 04:31:03;;;;;;;13.30;10.47;;;;;;;14.81;53.76;101353.11;125270;1104;102986;-86
2021/06/03 04:33:31;;;;;;;13.00;10.38;;;;;;;14.88;54.00;101352.00;125119;1099;103125;-87
2021/06/03 04:35:58;;;;;;;13.90;12.03;;;;;;;14.91;53.79;101358.21;124947;1104;103107;-85
2021/06/03 04:38:26;;;;;;;11.63;10.17;;;;;;;14.94;53.34;101358.11;125221;1104;103273;-87
2021/06/03 04:41:07;;;;;;;12.53;11.28;;;;;;;15.00;53.29;101365.99;124884;1099;103059;-84
2021/06/03 04:43:37;;;;;;;14.80;10.87;;;;;;;15.10;53.63;101362.13;124843;1106;103069;-85
2021/06/03 04:46:04;;;;;;;17.57;10.90;;;;;;;15.15;53.39;101365.52;125417;1104;103477;-86
2021/06/03 04:48:36;;;;;;;14.50;10.70;;;;;;;15.17;53.66;101363.69;125196;1097;103142;-85
2021/06/03 04:51:05;;;;;;;13.70;9.58;;;;;;;15.22;53.29;101371.58;125474;1101;103057;-85
2021/06/03 04:53:33;;;;;;;13.53;10.53;;;;;;;15.31;53.32;101367.75;125439;1097;103046;-85
2021/06/03 04:56:01;;;;;;;13.60;11.60;;;;;;;15.36;53.29;101368.50;125191;1104;103201;-87
2021/06/03 04:58:29;;;;;;;11.45;9.70;;;;;;;15.42;53.15;101373.69;125216;1097;103228;-85
2021/06/03 05:00:57;;;;;;;14.37;10.93;;;;;;;15.48;53.42;101362.73;125466;1103;103070;-86
2021/06/03 05:03:24;;;;;;;22.48;10.83;;;;;;;15.58;53.29;101367.81;125763;1102;103240;-85
2021/06/03 05:05:53;;;;;;;19.13;12.58;;;;;;;15.67;52.97;101365.73;124875;1096;103203;-85
2021/06/03 05:08:21;;;;;;;17.13;11.20;;;;;;;15.76;52.72;101366.36;125141;1104;103184;-84
2021/06/03 05:11:03;;;;;;;13.97;10.40;;;;;;;15.80;52.68;101362.64;125131;1100;103240;-86
2021/06/03 05:13:34;;;;;;;16.07;10.93;;;;;;;15.85;52.82;101366.09;125018;1104;103158;-86
2021/06/03 05:16:02;;;;;;;20.15;11.53;;;;;;;15.87;52.63;101365.13;125091;1100;103160;-85
2021/06/03 05:18:30;;;;;;;16.63;11.00;;;;;;;16.01;52.83;101366.47;125226;1104;103290;-86
2021/06/03 05:20:57;;;;;;;16.63;10.87;;;;;;;16.13;52.71;101368.73;125239;1104;103212;-86
2021/06/03 05:23:25;;;;;;;17.60;11.20;;;;;;;16.30;52.37;101365.47;125178;1104;103103;-85
2021/06/03 05:26:07;;;;;;;13.87;11.07;;;;;;;16.40;51.77;101367.84;124722;1104;103173;-88
2021/06/03 05:28:35;;;;;;;14.43;11.00;;;;;;;16.48;51.70;101371.13;124831;1104;103252;-86
2021/06/03 05:31:02;;;;;;;12.55;10.50;;;;;;;16.53;51.77;101369.16;124771;1100;103128;-88
2021/06/03 05:33:30;;;;;;;12.47;9.10;;;;;;;16.58;51.85;101377.05;125167;1104;102992;-88
2021/06/03 05:35:58;;;;;;;12.63;11.23;;;;;;;16.61;51.84;101372.45;125081;1100;103703;-85
2021/06/03 05:38:41;;;;;;;11.83;9.63;;;;;;;16.66;51.42;101383.92;125427;1099;103222;-86
2021/06/03 05:41:25;;;;;;;15.80;9.87;;;;;;;16.69;51.50;101377.55;124989;1105;104507;-86
2021/06/03 05:43:54;;;;;;;12.33;10.48;;;;;;;16.71;51.46;101381.05;124992;1105;103129;-85
2021/06/03 05:46:21;;;;;;;14.13;9.33;;;;;;;16.75;51.45;101390.77;125252;1104;103064;-86
2021/06/03 05:48:50;;;;;;;13.55;9.60;;;;;;;16.79;51.23;101389.71;125709;1096;102995;-84
2021/06/03 05:51:18;;;;;;;11.77;9.53;;;;;;;16.83;51.25;101377.94;125789;1101;103059;-85
2021/06/03 05:53:45;;;;;;;15.55;10.93;;;;;;;16.90;52.25;101388.48;125722;1101;103151;-84
2021/06/03 05:56:12;;;;;;;13.97;10.13;;;;;;;16.93;52.28;101394.64;125689;1101;103551;-84
2021/06/03 05:58:40;;;;;;;20.33;11.40;;;;;;;17.03;51.73;101389.78;125672;1101;104363;-83
2021/06/03 06:01:07;;;;;;;11.77;10.40;;;;;;;17.14;51.42;101384.89;125807;1096;103157;-84
2021/06/03 06:03:45;;;;;;;11.97;10.73;;;;;;;17.18;50.70;101377.55;124958;1103;103181;-84
2021/06/03 06:06:24;;;;;;;11.73;10.48;;;;;;;17.30;50.49;101389.66;125158;1101;103560;-84
2021/06/03 06:09:04;;;;;;;13.43;9.58;;;;;;;17.41;50.01;101391.94;124981;1101;103151;-83
2021/06/03 06:11:34;;;;;;;11.80;8.80;;;;;;;17.54;50.02;101391.41;125330;1101;103056;-83
2021/06/03 06:14:03;;;;;;;13.50;8.05;;;;;;;17.66;49.81;101394.54;125500;1096;103000;-84
2021/06/03 06:16:31;;;;;;;9.83;8.77;;;;;;;17.76;49.91;101393.23;125536;1101;103052;-85
2021/06/03 06:18:59;;;;;;;12.13;10.30;;;;;;;17.87;49.34;101393.69;125276;1101;103097;-84
2021/06/03 06:21:27;;;;;;;16.30;8.57;;;;;;;17.92;48.93;101393.52;125453;1101;103173;-85
2021/06/03 06:23:55;;;;;;;17.50;9.10;;;;;;;18.00;48.26;101395.91;125524;1101;103020;-84
2021/06/03 06:26:26;;;;;;;8.00;7.00;;;;;;;18.07;47.83;101392.00;125120;1095;103221;-83
2021/06/03 06:28:54;;;;;;;8.93;7.23;;;;;;;18.18;48.10;101380.76;125362;1101;103102;-86
2021/06/03 06:31:35;;;;;;;8.90;6.35;;;;;;;18.26;47.32;101389.42;125265;1096;103055;-85
2021/06/03 06:34:03;;;;;;;9.60;7.60;;;;;;;18.36;46.35;101390.77;125294;1101;103214;-84
2021/06/03 06:36:44;;;;;;;13.63;7.13;;;;;;;18.45;45.69;101394.03;124727;1104;103163;-84
2021/06/03 06:39:12;;;;;;;11.38;6.35;;;;;;;18.52;45.77;101390.11;125121;1101;103004;-85
2021/06/03 06:41:41;;;;;;;7.70;6.48;;;;;;;18.64;46.75;101386.00;125375;1101;103221;-85
2021/06/03 06:44:08;;;;;;;9.40;6.40;;;;;;;18.74;45.44;101390.05;125255;1096;103046;-86
2021/06/03 06:46:36;;;;;;;10.10;6.08;;;;;;;18.81;45.10;101394.20;125108;1104;103115;-85
2021/06/03 06:49:04;;;;;;;9.57;6.83;;;;;;;18.93;44.84;101392.81;125270;1096;103086;-84
2021/06/03 06:51:32;;;;;;;8.90;6.50;;;;;;;19.04;43.85;101390.48;125126;1104;103083;-86
2021/06/03 06:54:00;;;;;;;7.78;5.68;;;;;;;19.20;44.73;101400.59;125428;1101;103084;-84
2021/06/03 06:56:28;;;;;;;9.00;5.65;;;;;;;19.29;44.88;101396.59;125400;1096;103148;-83
2021/06/03 06:58:58;;;;;;;8.07;5.20;;;;;;;19.40;44.56;101396.08;125662;1101;103134;-84
2021/06/03 07:01:40;;;;;;;7.33;5.47;;;;;;;19.52;44.47;101399.05;124983;1101;103506;-83
2021/06/03 07:04:07;;;;;;;11.63;5.88;;;;;;;19.65;43.66;101391.24;124775;1097;103173;-84
2021/06/03 07:06:34;;;;;;;10.97;6.63;;;;;;;19.77;42.64;101392.47;125022;1101;103079;-84
2021/06/03 07:09:03;;;;;;;9.95;7.05;;;;;;;19.83;42.71;101392.22;125116;1096;103077;-82
2021/06/03 07:11:31;;;;;;;16.37;6.63;;;;;;;19.89;41.35;101388.33;125308;1096;103155;-87
2021/06/03 07:14:13;;;;;;;11.53;5.88;;;;;;;19.98;42.27;101390.57;125540;1101;103048;-86
2021/06/03 07:16:55;;;;;;;10.13;5.73;;;;;;;20.13;41.42;101393.46;125134;1104;103157;-87
2021/06/03 07:19:36;;;;;;;5.48;4.98;;;;;;;20.21;41.50;101386.69;124664;1104;103565;-85
2021/06/03 07:22:06;;;;;;;7.50;5.90;;;;;;;20.32;42.07;101388.84;124779;1104;103065;-87
2021/06/03 07:24:35;;;;;;;10.28;5.75;;;;;;;20.44;41.30;101392.74;124857;1104;103218;-87
2021/06/03 07:27:04;;;;;;;14.28;5.80;;;;;;;20.54;41.14;101387.75;125009;1098;103308;-84
2021/06/03 07:29:45;;;;;;;8.13;5.55;;;;;;;20.63;40.02;101386.38;124794;1101;103264;-87
2021/06/03 07:32:12;;;;;;;7.27;5.60;;;;;;;20.78;40.43;101382.89;124630;1107;103200;-85
2021/06/03 07:34:53;;;;;;;8.20;5.40;;;;;;;20.84;40.54;101378.97;124093;1111;102941;-84
2021/06/03 07:37:21;;;;;;;12.80;6.35;;;;;;;20.95;40.20;101383.80;124270;1111;103275;-84
2021/06/03 07:40:04;;;;;;;4.90;4.30;;;;;;;21.03;38.69;101384.25;124550;1108;104070;-87
2021/06/03 07:42:32;;;;;;;12.28;5.05;;;;;;;21.09;38.88;101388.48;124694;1101;103149;-86
2021/06/03 07:44:59;;;;;;;11.30;6.63;;;;;;;21.19;38.31;101387.00;124652;1108;103719;-81
2021/06/03 07:47:26;;;;;;;5.83;5.23;;;;;;;21.25;37.75;101389.38;124741;1108;103349;-84
2021/06/03 07:49:54;;;;;;;5.60;4.70;;;;;;;21.33;37.92;101386.25;124820;1102;103101;-85
2021/06/03 07:52:21;;;;;;;5.97;4.13;;;;;;;21.38;36.78;101382.31;124806;1107;103193;-83
2021/06/03 07:54:49;;;;;;;6.17;4.43;;;;;;;21.44;36.63;101382.93;124929;1104;103477;-87
2021/06/03 07:57:16;;;;;;;5.00;3.80;;;;;;;21.52;36.82;101383.37;125224;1100;103336;-87
2021/06/03 07:59:44;;;;;;;7.77;4.53;;;;;;;21.55;36.57;101383.22;125092;1099;104096;-93
2021/06/03 08:02:11;;;;;;;4.70;4.20;;;;;;;21.64;37.35;101388.11;124933;1099;103282;-87
2021/06/03 08:04:39;;;;;;;5.27;4.03;;;;;;;21.75;37.04;101390.20;125155;1104;103200;-87
2021/06/03 08:07:06;;;;;;;5.30;3.53;;;;;;;21.87;35.14;101391.33;125231;1096;104688;-88
2021/06/03 08:09:34;;;;;;;5.07;2.90;;;;;;;22.01;32.53;101379.70;125495;1101;103049;-93
2021/06/03 08:12:15;;;;;;;5.93;3.13;;;;;;;22.17;32.28;101377.81;125686;1104;102972;-85
2021/06/03 08:14:42;;;;;;;6.50;3.40;;;;;;;22.32;32.82;101376.01;125145;1101;103068;-84
2021/06/03 08:17:10;;;;;;;8.00;3.40;;;;;;;22.44;31.51;101382.58;125521;1096;103080;-88
2021/06/03 08:19:38;;;;;;;4.67;3.20;;;;;;;22.58;33.18;101379.03;125597;1101;103987;-88
2021/06/03 08:22:19;;;;;;;2.50;2.07;;;;;;;22.80;29.83;101386.70;125721;1096;103219;-96
2021/06/03 08:24:47;;;;;;;5.30;2.10;;;;;;;22.93;28.75;101375.95;125521;1101;103110;-90
2021/06/03 08:27:14;;;;;;;5.77;2.63;;;;;;;23.04;29.02;101376.17;125319;1101;103109;-85
2021/06/03 08:29:56;;;;;;;2.27;2.07;;;;;;;23.27;29.30;101378.40;125034;1105;103240;-87
2021/06/03 08:32:23;;;;;;;4.33;2.30;;;;;;;23.44;28.15;101374.59;125038;1099;103740;-89
2021/06/03 08:34:51;;;;;;;4.38;2.23;;;;;;;23.57;28.88;101380.12;125082;1097;103268;-90
2021/06/03 08:37:18;;;;;;;3.15;2.20;;;;;;;23.50;26.97;101374.20;124997;1104;103053;-86
2021/06/03 08:39:59;;;;;;;3.93;1.63;;;;;;;23.49;27.96;101370.59;125052;1100;103360;-81
2021/06/03 08:42:27;;;;;;;4.88;2.98;;;;;;;23.68;27.05;101377.55;125028;1104;103430;-82
2021/06/03 08:44:54;;;;;;;2.43;2.00;;;;;;;23.87;26.80;101372.63;125139;1100;103343;-84
2021/06/03 08:47:35;;;;;;;3.93;2.33;;;;;;;24.12;27.67;101372.85;124497;1102;103417;-85
2021/06/03 08:50:04;;;;;;;2.57;2.20;;;;;;;24.33;26.85;101365.92;124744;1107;103279;-86
2021/06/03 08:52:32;;;;;;;5.18;2.30;;;;;;;24.48;27.18;101366.70;124991;1107;103192;-85
2021/06/03 08:55:01;;;;;;;2.48;2.13;;;;;;;24.71;26.38;101369.70;125378;1101;103124;-84
2021/06/03 08:57:29;;;;;;;4.30;1.93;;;;;;;24.76;24.62;101370.24;124814;1108;103064;-82
2021/06/03 08:59:57;;;;;;;2.47;2.03;;;;;;;24.61;24.60;101374.04;124427;1108;103961;-85
2021/06/03 09:02:24;;;;;;;3.05;2.23;;;;;;;24.44;25.76;101372.48;124844;1107;103171;-86
2021/06/03 09:04:52;;;;;;;3.77;1.50;;;;;;;24.63;25.38;101358.48;124661;1100;103088;-90
2021/06/03 09:07:33;;;;;;;3.00;1.90;;;;;;;24.96;25.73;101362.51;124795;1105;103152;-85
2021/06/03 09:10:33;;;;;;;3.83;2.18;;;;;;;25.23;26.22;101369.66;125327;1099;103002;-92
2021/06/03 09:13:07;;;;;;;3.78;2.60;;;;;;;25.33;25.08;101370.74;125451;1099;103811;-89
2021/06/03 09:15:36;;;;;;;4.43;3.13;;;;;;;25.46;26.52;101371.61;124874;1104;103900;-92
2021/06/03 09:18:07;;;;;;;4.05;2.93;;;;;;;25.72;26.13;101374.24;124922;1104;103231;-88
2021/06/03 09:20:37;;;;;;;3.25;2.15;;;;;;;25.96;24.65;101367.92;125273;1104;103240;-90
2021/06/03 09:23:05;;;;;;;6.20;2.93;;;;;;;26.17;25.48;101366.30;125132;1104;103268;-85
2021/06/03 09:25:36;;;;;;;3.27;2.57;;;;;;;26.67;25.38;101356.99;125166;1096;103083;-88
2021/06/03 09:28:28;;;;;;;5.25;1.80;;;;;;;27.45;23.13;101355.31;124986;1102;103062;-84
2021/06/03 09:31:26;;;;;;;2.87;2.60;;;;;;;27.83;23.82;101353.09;125082;1101;103046;-91
2021/06/03 09:33:58;;;;;;;4.20;3.00;;;;;;;27.48;25.34;101365.13;125373;1101;103059;-86
2021/06/03 09:36:49;;;;;;;3.53;2.60;;;;;;;27.11;24.11;101359.91;125536;1101;103951;-92
2021/06/03 09:39:23;;;;;;;4.23;2.83;;;;;;;26.75;25.41;101357.31;125541;1101;103059;-88
2021/06/03 09:42:04;;;;;;;11.17;2.60;;;;;;;26.64;24.63;101362.71;125410;1102;103086;-88
2021/06/03 09:44:33;;;;;;;3.45;2.43;;;;;;;26.39;24.92;101356.47;125726;1097;103058;-90
2021/06/03 09:47:22;;;;;;;9.28;2.88;;;;;;;26.21;25.18;101353.30;125483;1101;103243;-91
2021/06/03 09:49:53;;;;;;;8.85;3.48;;;;;;;26.78;24.41;101346.13;125745;1101;103195;-87
2021/06/03 09:52:24;;;;;;;5.80;2.33;;;;;;;26.77;24.27;101349.84;125468;1096;103056;-87
2021/06/03 09:54:56;;;;;;;3.40;2.67;;;;;;;26.46;24.26;101351.39;125713;1101;103054;-83
2021/06/03 09:57:35;;;;;;;4.20;2.83;;;;;;;26.23;24.72;101354.06;125958;1097;103196;-86
2021/06/03 10:00:10;;;;;;;3.73;2.80;;;;;;;25.99;24.82;101354.03;125468;1101;103132;-88
2021/06/03 10:02:38;;;;;;;12.10;9.70;;;;;;;25.77;24.06;101347.48;125724;1101;103055;-89
2021/06/03 10:05:14;;;;;;;7.75;3.28;;;;;;;25.57;24.97;101353.59;125597;1096;103001;-85
2021/06/03 10:08:07;;;;;;;2.85;2.55;;;;;;;25.36;25.24;101351.45;125130;1101;103003;-90
2021/06/03 10:10:39;;;;;;;3.07;2.30;;;;;;;25.71;26.99;101345.20;125222;1101;103088;-90
2021/06/03 10:13:09;;;;;;;2.87;2.40;;;;;;;25.86;25.03;101344.06;125411;1097;103185;-87
2021/06/03 10:15:39;;;;;;;4.40;2.90;;;;;;;27.34;23.47;101341.64;125609;1101;103577;-91
2021/06/03 10:18:08;;;;;;;5.30;2.30;;;;;;;28.78;21.04;101338.57;125523;1101;102971;-85
2021/06/03 10:20:44;;;;;;;5.03;3.10;;;;;;;29.89;20.68;101340.53;125146;1104;103127;-96
2021/06/03 10:23:23;;;;;;;7.23;2.50;;;;;;;29.69;20.51;101343.22;125458;1096;103433;-85
2021/06/03 10:26:05;;;;;;;3.13;2.07;;;;;;;29.21;21.77;101349.44;125519;1096;103424;-93
2021/06/03 10:28:34;;;;;;;4.80;2.55;;;;;;;28.67;22.12;101345.01;125680;1101;104063;-88
2021/06/03 10:31:15;;;;;;;3.00;2.23;;;;;;;27.84;21.08;101343.89;125163;1104;103265;-87
2021/06/03 10:33:43;;;;;;;2.10;1.90;;;;;;;27.26;22.03;101338.64;125128;1104;103257;-90
2021/06/03 10:36:15;;;;;;;3.10;2.10;;;;;;;27.08;23.49;101341.89;125172;1104;103206;-88
2021/06/03 10:38:43;;;;;;;2.57;2.00;;;;;;;27.67;23.34;101343.45;125163;1104;103407;-86
2021/06/03 10:41:14;;;;;;;3.10;2.20;;;;;;;28.14;22.67;101347.80;125232;1099;103229;-90
2021/06/03 10:43:41;;;;;;;3.30;1.90;;;;;;;27.72;22.50;101345.79;125038;1104;103053;-86
2021/06/03 10:46:09;;;;;;;5.35;2.28;;;;;;;27.47;23.56;101344.23;125003;1105;103277;-89
2021/06/03 10:48:37;;;;;;;7.25;2.78;;;;;;;27.18;23.55;101347.50;125369;1105;103234;-85
2021/06/03 10:51:06;;;;;;;3.25;2.30;;;;;;;26.93;23.27;101346.75;126251;1104;103183;-86
2021/06/03 10:53:36;;;;;;;3.50;2.00;;;;;;;26.53;23.87;101345.30;125650;1104;102984;-84
2021/06/03 10:56:06;;;;;;;6.88;2.35;;;;;;;26.33;23.43;101346.87;124959;1104;103394;-91
2021/06/03 10:58:49;;;;;;;4.25;3.85;;;;;;;26.16;23.54;101341.86;125203;1104;103299;-83
2021/06/03 11:01:19;;;;;;;4.60;2.33;;;;;;;26.11;24.36;101336.77;125269;1100;103153;-83
2021/06/03 11:03:57;;;;;;;2.50;2.00;;;;;;;25.93;24.69;101349.92;125191;1099;103160;-87
2021/06/03 11:06:27;;;;;;;5.65;2.75;;;;;;;25.80;24.02;101349.97;125225;1104;103560;-85
2021/06/03 11:09:00;;;;;;;5.55;2.23;;;;;;;25.70;24.12;101348.95;125336;1101;103101;-88
2021/06/03 11:11:29;;;;;;;5.40;2.53;;;;;;;25.63;24.35;101347.66;125611;1096;103049;-91
2021/06/03 11:14:06;;;;;;;3.77;2.70;;;;;;;25.50;24.48;101339.53;125589;1101;103220;-88
2021/06/03 11:16:41;;;;;;;3.63;2.40;;;;;;;25.46;25.19;101344.34;125407;1101;103095;-87
2021/06/03 11:19:10;;;;;;;3.43;2.03;;;;;;;25.52;24.53;101341.16;125809;1101;103150;-88
2021/06/03 11:21:57;;;;;;;10.10;3.20;;;;;;;25.57;26.10;101331.77;125637;1101;103802;-93